Eems Servant — PBTI — position and weather

sailwx.info

Track history (hours):
 
Tides and Currents Weather Stations Pressure Air Temp Water Temp Dewpoint Dewpoint Depression Visibility Wind Speed Wind Dir Waves Ship Positions

Eems Servant

Last reported at 2014-Sep-26 10:33 UTC. Time now 2014-Oct-01 18:28 UTC.
Position N 63°32' W 022°12'.

Length 87 m; draft 4.4 m.

Type: Cargo ship. MMSI: 246236000.

Date/timePositionNaut miles runAvg speedWind from/ knotsBaromVisibWave heightAir tempDewpointWater temp
2014-Sep-26 10:33N 63°32' W 022°12'40 5.7
2014-Sep-26 03:25N 64°09' W 022°51'4 5.1
2014-Sep-26 02:33N 64°09' W 022°41'6 6.1
2014-Sep-26 01:33N 64°10' W 022°27'7 7.2
2014-Sep-26 00:33N 64°11' W 022°10'7 7.4
2014-Sep-25 23:33N 64°10' W 021°53'1 1.3
2014-Sep-25 22:31N 64°09' W 021°52'0 0.0
2014-Sep-25 21:31N 64°09' W 021°52'0 0.0
2014-Sep-25 20:31N 64°09' W 021°52'0 0.0
2014-Sep-25 19:31N 64°09' W 021°52'0 0.0
2014-Sep-25 18:19N 64°09' W 021°52'0 0.0
2014-Sep-25 17:31N 64°09' W 021°52'0 0.0
2014-Sep-25 16:28N 64°09' W 021°52'0 0.0
2014-Sep-25 15:28N 64°09' W 021°52'0 0.0
2014-Sep-25 14:28N 64°09' W 021°52'0 0.0
2014-Sep-25 13:25N 64°09' W 021°52'0 0.4
2014-Sep-25 12:33N 64°10' W 021°52'6 5.7
2014-Sep-25 11:34N 64°13' W 022°02'5 5.1
2014-Sep-25 10:33N 64°14' W 022°13'8 8.0
2014-Sep-25 09:33N 64°18' W 022°29'8 8.1
2014-Sep-25 08:32N 64°22' W 022°46'50 7.1
2014-Sep-25 01:27N 64°56' W 024°13'16 6.8
2014-Sep-24 23:07N 65°11' W 024°24'4 7.6
2014-Sep-24 22:32N 65°15' W 024°27'  
2014-Sep-21 06:32N 65°26' W 024°37'10 9.6
2014-Sep-21 05:32N 65°16' W 024°31'19 9.1
2014-Sep-21 03:26N 64°58' W 024°18'50 8.4
2014-Sep-20 21:33N 64°25' W 022°53'9 9.4
2014-Sep-20 20:33N 64°21' W 022°33'9 9.3
2014-Sep-20 19:33N 64°17' W 022°13'9 8.7
2014-Sep-20 18:33N 64°18' W 021°53'4 4.3
2014-Sep-20 17:33N 64°21' W 021°47'0 0.0
2014-Sep-20 16:33N 64°21' W 021°47'0 0.0
2014-Sep-20 15:33N 64°21' W 021°47'0 0.0
2014-Sep-20 14:30N 64°21' W 021°47'0 0.0
2014-Sep-20 13:33N 64°21' W 021°47'0 0.0
2014-Sep-20 12:33N 64°21' W 021°47'0 0.0
2014-Sep-20 11:33N 64°21' W 021°47'  
Track history (hours):
 
Tides and Currents Weather Stations Pressure Air Temp Water Temp Dewpoint Dewpoint Depression Visibility Wind Speed Wind Dir Waves Ship Positions

Eems Servant

Last reported at 2014-Sep-26 10:33 UTC. Time now 2014-Oct-01 18:28 UTC.
Position N 63°32' W 022°12'.

Length 87 m; draft 4.4 m.

Type: Cargo ship. MMSI: 246236000.

Date/timePositionNaut miles runAvg speedWind from/ knotsBaromVisibWave heightAir tempDewpointWater temp
2014-Sep-26 10:33N 63°32' W 022°12'40 5.7
2014-Sep-26 03:25N 64°09' W 022°51'4 5.1
2014-Sep-26 02:33N 64°09' W 022°41'6 6.1
2014-Sep-26 01:33N 64°10' W 022°27'7 7.2
2014-Sep-26 00:33N 64°11' W 022°10'7 7.4
2014-Sep-25 23:33N 64°10' W 021°53'1 1.3
2014-Sep-25 22:31N 64°09' W 021°52'0 0.0
2014-Sep-25 21:31N 64°09' W 021°52'0 0.0
2014-Sep-25 20:31N 64°09' W 021°52'0 0.0
2014-Sep-25 19:31N 64°09' W 021°52'0 0.0
2014-Sep-25 18:19N 64°09' W 021°52'0 0.0
2014-Sep-25 17:31N 64°09' W 021°52'0 0.0
2014-Sep-25 16:28N 64°09' W 021°52'0 0.0
2014-Sep-25 15:28N 64°09' W 021°52'0 0.0
2014-Sep-25 14:28N 64°09' W 021°52'0 0.0
2014-Sep-25 13:25N 64°09' W 021°52'0 0.4
2014-Sep-25 12:33N 64°10' W 021°52'6 5.7
2014-Sep-25 11:34N 64°13' W 022°02'5 5.1
2014-Sep-25 10:33N 64°14' W 022°13'8 8.0
2014-Sep-25 09:33N 64°18' W 022°29'8 8.1
2014-Sep-25 08:32N 64°22' W 022°46'50 7.1
2014-Sep-25 01:27N 64°56' W 024°13'16 6.8
2014-Sep-24 23:07N 65°11' W 024°24'4 7.6
2014-Sep-24 22:32N 65°15' W 024°27'  
2014-Sep-21 06:32N 65°26' W 024°37'10 9.6
2014-Sep-21 05:32N 65°16' W 024°31'19 9.1
2014-Sep-21 03:26N 64°58' W 024°18'50 8.4
2014-Sep-20 21:33N 64°25' W 022°53'9 9.4
2014-Sep-20 20:33N 64°21' W 022°33'9 9.3
2014-Sep-20 19:33N 64°17' W 022°13'9 8.7
2014-Sep-20 18:33N 64°18' W 021°53'4 4.3
2014-Sep-20 17:33N 64°21' W 021°47'0 0.0
2014-Sep-20 16:33N 64°21' W 021°47'0 0.0
2014-Sep-20 15:33N 64°21' W 021°47'0 0.0
2014-Sep-20 14:30N 64°21' W 021°47'0 0.0
2014-Sep-20 13:33N 64°21' W 021°47'0 0.0
2014-Sep-20 12:33N 64°21' W 021°47'0 0.0
2014-Sep-20 11:33N 64°21' W 021°47'  

Dump ship's entire track history